sensor_id;sensor_type;location;lat;lon;timestamp;temperature;humidity
23160;DHT22;11748;50.844;4.396;2023-02-01T00:00:13;8.70;99.90
23160;DHT22;11748;50.844;4.396;2023-02-01T00:02:41;8.70;99.90
23160;DHT22;11748;50.844;4.396;2023-02-01T00:05:08;8.70;99.90
23160;DHT22;11748;50.844;4.396;2023-02-01T00:07:35;8.70;99.90
23160;DHT22;11748;50.844;4.396;2023-02-01T00:10:01;8.50;99.90
23160;DHT22;11748;50.844;4.396;2023-02-01T00:12:29;8.60;99.90
23160;DHT22;11748;50.844;4.396;2023-02-01T00:14:54;8.60;99.90
23160;DHT22;11748;50.844;4.396;2023-02-01T00:17:21;8.50;99.90
23160;DHT22;11748;50.844;4.396;2023-02-01T00:19:46;8.50;99.90
23160;DHT22;11748;50.844;4.396;2023-02-01T00:22:12;8.50;99.90
23160;DHT22;11748;50.844;4.396;2023-02-01T00:24:40;8.50;99.90
23160;DHT22;11748;50.844;4.396;2023-02-01T00:27:06;8.40;99.90
23160;DHT22;11748;50.844;4.396;2023-02-01T00:29:32;8.40;99.90
23160;DHT22;11748;50.844;4.396;2023-02-01T00:31:57;8.40;99.90
23160;DHT22;11748;50.844;4.396;2023-02-01T00:34:23;8.40;99.90
23160;DHT22;11748;50.844;4.396;2023-02-01T00:36:49;8.50;99.90
23160;DHT22;11748;50.844;4.396;2023-02-01T00:39:15;8.50;99.90
23160;DHT22;11748;50.844;4.396;2023-02-01T00:41:41;8.60;99.90
23160;DHT22;11748;50.844;4.396;2023-02-01T00:44:07;8.60;99.90
23160;DHT22;11748;50.844;4.396;2023-02-01T00:46:32;8.60;99.90
23160;DHT22;11748;50.844;4.396;2023-02-01T00:48:58;8.60;99.90
23160;DHT22;11748;50.844;4.396;2023-02-01T00:51:27;8.50;99.90
23160;DHT22;11748;50.844;4.396;2023-02-01T00:53:53;8.50;99.90
23160;DHT22;11748;50.844;4.396;2023-02-01T00:56:19;8.30;99.90
23160;DHT22;11748;50.844;4.396;2023-02-01T00:58:45;8.20;99.90
23160;DHT22;11748;50.844;4.396;2023-02-01T01:01:14;8.20;99.90
23160;DHT22;11748;50.844;4.396;2023-02-01T01:03:43;8.30;99.90
23160;DHT22;11748;50.844;4.396;2023-02-01T01:06:14;8.40;99.90
23160;DHT22;11748;50.844;4.396;2023-02-01T01:08:41;8.40;99.90
23160;DHT22;11748;50.844;4.396;2023-02-01T01:11:31;8.40;99.90
23160;DHT22;11748;50.844;4.396;2023-02-01T01:13:59;8.40;99.90
23160;DHT22;11748;50.844;4.396;2023-02-01T01:16:26;8.40;99.90
23160;DHT22;11748;50.844;4.396;2023-02-01T01:18:52;8.40;99.90
23160;DHT22;11748;50.844;4.396;2023-02-01T01:21:19;8.30;99.90
23160;DHT22;11748;50.844;4.396;2023-02-01T01:23:46;8.30;99.90
23160;DHT22;11748;50.844;4.396;2023-02-01T01:26:19;8.30;99.90
23160;DHT22;11748;50.844;4.396;2023-02-01T01:28:46;8.30;99.90
23160;DHT22;11748;50.844;4.396;2023-02-01T01:31:14;8.40;99.90
23160;DHT22;11748;50.844;4.396;2023-02-01T01:33:39;8.40;99.90
23160;DHT22;11748;50.844;4.396;2023-02-01T01:36:07;8.30;99.90
23160;DHT22;11748;50.844;4.396;2023-02-01T01:38:35;8.40;99.90
23160;DHT22;11748;50.844;4.396;2023-02-01T01:41:01;8.30;99.90
23160;DHT22;11748;50.844;4.396;2023-02-01T01:43:53;8.30;99.90
23160;DHT22;11748;50.844;4.396;2023-02-01T01:46:28;8.20;99.90
23160;DHT22;11748;50.844;4.396;2023-02-01T01:49:20;8.30;99.90
23160;DHT22;11748;50.844;4.396;2023-02-01T01:51:48;8.30;99.90
23160;DHT22;11748;50.844;4.396;2023-02-01T01:54:30;8.20;99.90
23160;DHT22;11748;50.844;4.396;2023-02-01T01:57:00;8.40;99.90
23160;DHT22;11748;50.844;4.396;2023-02-01T01:59:27;8.50;99.90
23160;DHT22;11748;50.844;4.396;2023-02-01T02:01:54;8.40;99.90
23160;DHT22;11748;50.844;4.396;2023-02-01T02:04:21;8.50;99.90
23160;DHT22;11748;50.844;4.396;2023-02-01T02:07:10;8.40;99.90
23160;DHT22;11748;50.844;4.396;2023-02-01T02:09:37;8.40;99.90
23160;DHT22;11748;50.844;4.396;2023-02-01T02:12:03;8.40;99.90
23160;DHT22;11748;50.844;4.396;2023-02-01T02:14:30;8.40;99.90
23160;DHT22;11748;50.844;4.396;2023-02-01T02:33:44;8.20;99.90
23160;DHT22;11748;50.844;4.396;2023-02-01T02:37:08;8.30;99.90
23160;DHT22;11748;50.844;4.396;2023-02-01T02:53:43;8.20;99.90
23160;DHT22;11748;50.844;4.396;2023-02-01T02:56:31;8.10;99.90
23160;DHT22;11748;50.844;4.396;2023-02-01T02:59:20;8.00;99.90
23160;DHT22;11748;50.844;4.396;2023-02-01T03:02:06;8.00;99.90
23160;DHT22;11748;50.844;4.396;2023-02-01T03:04:55;8.00;99.90
23160;DHT22;11748;50.844;4.396;2023-02-01T03:10:26;8.00;99.90
23160;DHT22;11748;50.844;4.396;2023-02-01T03:13:06;8.00;99.90
23160;DHT22;11748;50.844;4.396;2023-02-01T03:15:39;8.00;99.90
23160;DHT22;11748;50.844;4.396;2023-02-01T03:18:34;7.90;99.90
23160;DHT22;11748;50.844;4.396;2023-02-01T03:20:59;7.90;99.90
23160;DHT22;11748;50.844;4.396;2023-02-01T03:23:28;7.80;99.90
23160;DHT22;11748;50.844;4.396;2023-02-01T03:25:59;7.80;99.90
23160;DHT22;11748;50.844;4.396;2023-02-01T03:28:28;7.80;99.90
23160;DHT22;11748;50.844;4.396;2023-02-01T03:30:55;7.80;99.90
23160;DHT22;11748;50.844;4.396;2023-02-01T03:33:23;7.70;99.90
23160;DHT22;11748;50.844;4.396;2023-02-01T03:41:27;7.70;99.90
23160;DHT22;11748;50.844;4.396;2023-02-01T03:47:14;7.70;99.90
23160;DHT22;11748;50.844;4.396;2023-02-01T03:50:09;7.70;99.90
23160;DHT22;11748;50.844;4.396;2023-02-01T03:53:16;7.70;99.90
23160;DHT22;11748;50.844;4.396;2023-02-01T03:55:35;7.60;99.90
23160;DHT22;11748;50.844;4.396;2023-02-01T03:58:14;7.60;99.90
23160;DHT22;11748;50.844;4.396;2023-02-01T04:00:45;7.50;99.90
23160;DHT22;11748;50.844;4.396;2023-02-01T04:03:11;7.60;99.90
23160;DHT22;11748;50.844;4.396;2023-02-01T04:05:37;7.60;99.90
23160;DHT22;11748;50.844;4.396;2023-02-01T04:08:03;7.50;99.90
23160;DHT22;11748;50.844;4.396;2023-02-01T04:10:31;7.40;99.90
23160;DHT22;11748;50.844;4.396;2023-02-01T04:12:57;7.40;99.90
23160;DHT22;11748;50.844;4.396;2023-02-01T04:15:22;7.40;99.90
23160;DHT22;11748;50.844;4.396;2023-02-01T04:17:48;7.50;99.90
23160;DHT22;11748;50.844;4.396;2023-02-01T04:20:14;7.50;99.90
23160;DHT22;11748;50.844;4.396;2023-02-01T04:22:39;7.40;99.90
23160;DHT22;11748;50.844;4.396;2023-02-01T04:25:06;7.50;99.90
23160;DHT22;11748;50.844;4.396;2023-02-01T04:27:32;7.40;99.90
23160;DHT22;11748;50.844;4.396;2023-02-01T04:29:57;7.30;99.90
23160;DHT22;11748;50.844;4.396;2023-02-01T04:32:23;7.20;99.90
23160;DHT22;11748;50.844;4.396;2023-02-01T04:34:50;7.00;99.90
23160;DHT22;11748;50.844;4.396;2023-02-01T04:37:23;7.10;99.90
23160;DHT22;11748;50.844;4.396;2023-02-01T04:39:48;7.00;99.90
23160;DHT22;11748;50.844;4.396;2023-02-01T04:42:14;7.10;99.90
23160;DHT22;11748;50.844;4.396;2023-02-01T04:44:40;7.20;99.90
23160;DHT22;11748;50.844;4.396;2023-02-01T04:47:07;7.20;99.90
23160;DHT22;11748;50.844;4.396;2023-02-01T04:49:33;7.00;99.90
23160;DHT22;11748;50.844;4.396;2023-02-01T04:51:59;7.10;99.90
23160;DHT22;11748;50.844;4.396;2023-02-01T04:54:24;7.10;99.90
23160;DHT22;11748;50.844;4.396;2023-02-01T04:56:50;7.00;99.90
23160;DHT22;11748;50.844;4.396;2023-02-01T04:59:17;7.00;99.90
23160;DHT22;11748;50.844;4.396;2023-02-01T05:01:43;6.90;99.90
23160;DHT22;11748;50.844;4.396;2023-02-01T05:04:08;6.90;99.90
23160;DHT22;11748;50.844;4.396;2023-02-01T05:06:34;6.80;99.90
23160;DHT22;11748;50.844;4.396;2023-02-01T05:09:00;6.80;99.90
23160;DHT22;11748;50.844;4.396;2023-02-01T05:11:25;6.80;99.90
23160;DHT22;11748;50.844;4.396;2023-02-01T05:14:09;6.60;99.90
23160;DHT22;11748;50.844;4.396;2023-02-01T05:16:35;6.60;99.90
23160;DHT22;11748;50.844;4.396;2023-02-01T05:19:01;6.60;99.90
23160;DHT22;11748;50.844;4.396;2023-02-01T05:21:28;6.60;99.90
23160;DHT22;11748;50.844;4.396;2023-02-01T05:23:53;6.50;99.90
23160;DHT22;11748;50.844;4.396;2023-02-01T05:26:38;6.50;99.90
23160;DHT22;11748;50.844;4.396;2023-02-01T05:29:09;6.50;99.90
23160;DHT22;11748;50.844;4.396;2023-02-01T05:31:35;6.50;99.90
23160;DHT22;11748;50.844;4.396;2023-02-01T05:34:01;6.40;99.90
23160;DHT22;11748;50.844;4.396;2023-02-01T05:36:27;6.50;99.90
23160;DHT22;11748;50.844;4.396;2023-02-01T05:38:53;6.40;99.90
23160;DHT22;11748;50.844;4.396;2023-02-01T05:41:21;6.40;99.90
23160;DHT22;11748;50.844;4.396;2023-02-01T05:43:46;6.40;99.90
23160;DHT22;11748;50.844;4.396;2023-02-01T05:46:13;6.50;99.90
23160;DHT22;11748;50.844;4.396;2023-02-01T05:48:40;6.40;99.90
23160;DHT22;11748;50.844;4.396;2023-02-01T05:51:06;6.30;99.90
23160;DHT22;11748;50.844;4.396;2023-02-01T05:53:32;6.20;99.90
23160;DHT22;11748;50.844;4.396;2023-02-01T05:55:58;6.20;99.90
23160;DHT22;11748;50.844;4.396;2023-02-01T05:58:24;6.10;99.90
23160;DHT22;11748;50.844;4.396;2023-02-01T06:00:50;6.10;99.90
23160;DHT22;11748;50.844;4.396;2023-02-01T06:03:17;6.10;99.90
23160;DHT22;11748;50.844;4.396;2023-02-01T06:05:48;6.20;99.90
23160;DHT22;11748;50.844;4.396;2023-02-01T06:08:14;6.10;99.90
23160;DHT22;11748;50.844;4.396;2023-02-01T06:10:40;6.20;99.90
23160;DHT22;11748;50.844;4.396;2023-02-01T06:13:06;6.20;99.90
23160;DHT22;11748;50.844;4.396;2023-02-01T06:15:31;6.10;99.90
23160;DHT22;11748;50.844;4.396;2023-02-01T06:17:58;6.00;99.90
23160;DHT22;11748;50.844;4.396;2023-02-01T06:20:25;6.00;99.90
23160;DHT22;11748;50.844;4.396;2023-02-01T06:22:53;6.00;99.90
23160;DHT22;11748;50.844;4.396;2023-02-01T06:25:19;6.10;99.90
23160;DHT22;11748;50.844;4.396;2023-02-01T06:27:46;6.10;99.90
23160;DHT22;11748;50.844;4.396;2023-02-01T06:30:12;6.20;99.90
23160;DHT22;11748;50.844;4.396;2023-02-01T06:32:41;6.30;99.90
23160;DHT22;11748;50.844;4.396;2023-02-01T06:35:08;6.30;99.90
23160;DHT22;11748;50.844;4.396;2023-02-01T06:37:39;6.30;99.90
23160;DHT22;11748;50.844;4.396;2023-02-01T06:40:05;6.20;99.90
23160;DHT22;11748;50.844;4.396;2023-02-01T06:42:30;6.20;99.90
23160;DHT22;11748;50.844;4.396;2023-02-01T06:44:56;6.10;99.90
23160;DHT22;11748;50.844;4.396;2023-02-01T06:47:22;6.10;99.90
23160;DHT22;11748;50.844;4.396;2023-02-01T06:49:48;6.20;99.90
23160;DHT22;11748;50.844;4.396;2023-02-01T06:52:13;6.20;99.90
23160;DHT22;11748;50.844;4.396;2023-02-01T06:54:39;6.20;99.90
23160;DHT22;11748;50.844;4.396;2023-02-01T06:57:05;6.30;99.90
23160;DHT22;11748;50.844;4.396;2023-02-01T06:59:30;6.20;99.90
23160;DHT22;11748;50.844;4.396;2023-02-01T07:01:59;6.20;99.90
23160;DHT22;11748;50.844;4.396;2023-02-01T07:04:24;6.20;99.90
23160;DHT22;11748;50.844;4.396;2023-02-01T07:06:53;6.20;99.90
23160;DHT22;11748;50.844;4.396;2023-02-01T07:09:18;6.00;99.90
23160;DHT22;11748;50.844;4.396;2023-02-01T07:11:44;6.00;99.90
23160;DHT22;11748;50.844;4.396;2023-02-01T07:14:11;5.90;99.90
23160;DHT22;11748;50.844;4.396;2023-02-01T07:16:39;5.90;99.90
23160;DHT22;11748;50.844;4.396;2023-02-01T07:19:05;5.90;99.90
23160;DHT22;11748;50.844;4.396;2023-02-01T07:21:33;5.90;99.90
23160;DHT22;11748;50.844;4.396;2023-02-01T07:23:59;6.10;99.90
23160;DHT22;11748;50.844;4.396;2023-02-01T07:26:25;6.00;99.90
23160;DHT22;11748;50.844;4.396;2023-02-01T07:28:52;6.00;99.90
23160;DHT22;11748;50.844;4.396;2023-02-01T07:31:20;5.90;99.90
23160;DHT22;11748;50.844;4.396;2023-02-01T07:33:48;6.00;99.90
23160;DHT22;11748;50.844;4.396;2023-02-01T07:36:19;5.90;99.90
23160;DHT22;11748;50.844;4.396;2023-02-01T07:38:45;5.90;99.90
23160;DHT22;11748;50.844;4.396;2023-02-01T07:41:12;5.90;99.90
23160;DHT22;11748;50.844;4.396;2023-02-01T07:43:38;5.90;99.90
23160;DHT22;11748;50.844;4.396;2023-02-01T07:46:04;6.00;99.90
23160;DHT22;11748;50.844;4.396;2023-02-01T07:48:31;6.00;99.90
23160;DHT22;11748;50.844;4.396;2023-02-01T07:51:10;5.90;99.90
23160;DHT22;11748;50.844;4.396;2023-02-01T07:53:36;6.00;99.90
23160;DHT22;11748;50.844;4.396;2023-02-01T07:56:04;6.00;99.90
23160;DHT22;11748;50.844;4.396;2023-02-01T07:58:30;6.10;99.90
23160;DHT22;11748;50.844;4.396;2023-02-01T08:00:55;6.00;99.90
23160;DHT22;11748;50.844;4.396;2023-02-01T08:03:40;6.10;99.90
23160;DHT22;11748;50.844;4.396;2023-02-01T08:06:08;6.30;99.90
23160;DHT22;11748;50.844;4.396;2023-02-01T08:08:34;6.30;99.90
23160;DHT22;11748;50.844;4.396;2023-02-01T08:11:04;6.40;99.90
23160;DHT22;11748;50.844;4.396;2023-02-01T08:13:30;6.40;99.90
23160;DHT22;11748;50.844;4.396;2023-02-01T08:16:03;6.50;99.90
23160;DHT22;11748;50.844;4.396;2023-02-01T08:18:29;6.60;99.90
23160;DHT22;11748;50.844;4.396;2023-02-01T08:20:55;6.40;99.90
23160;DHT22;11748;50.844;4.396;2023-02-01T08:23:22;6.50;99.90
23160;DHT22;11748;50.844;4.396;2023-02-01T08:25:48;6.70;99.90
23160;DHT22;11748;50.844;4.396;2023-02-01T08:28:16;6.80;99.90
23160;DHT22;11748;50.844;4.396;2023-02-01T08:30:50;6.70;99.90
23160;DHT22;11748;50.844;4.396;2023-02-01T08:33:16;6.50;99.90
23160;DHT22;11748;50.844;4.396;2023-02-01T08:35:42;6.50;99.90
23160;DHT22;11748;50.844;4.396;2023-02-01T08:38:08;6.40;99.90
23160;DHT22;11748;50.844;4.396;2023-02-01T08:40:33;6.30;99.90
23160;DHT22;11748;50.844;4.396;2023-02-01T08:43:00;6.30;99.90
23160;DHT22;11748;50.844;4.396;2023-02-01T08:45:28;6.40;99.90
23160;DHT22;11748;50.844;4.396;2023-02-01T08:47:55;6.50;99.90
23160;DHT22;11748;50.844;4.396;2023-02-01T08:50:22;6.60;99.90
23160;DHT22;11748;50.844;4.396;2023-02-01T08:52:48;6.80;99.90
23160;DHT22;11748;50.844;4.396;2023-02-01T08:55:14;6.80;99.90
23160;DHT22;11748;50.844;4.396;2023-02-01T08:57:41;7.00;99.90
23160;DHT22;11748;50.844;4.396;2023-02-01T09:00:09;7.10;99.90
23160;DHT22;11748;50.844;4.396;2023-02-01T09:02:36;7.10;99.90
23160;DHT22;11748;50.844;4.396;2023-02-01T09:05:02;6.90;99.90
23160;DHT22;11748;50.844;4.396;2023-02-01T09:07:29;6.90;99.90
23160;DHT22;11748;50.844;4.396;2023-02-01T09:09:55;6.90;99.90
23160;DHT22;11748;50.844;4.396;2023-02-01T09:12:21;6.90;99.90
23160;DHT22;11748;50.844;4.396;2023-02-01T09:14:47;7.10;99.90
23160;DHT22;11748;50.844;4.396;2023-02-01T09:17:13;7.00;99.90
23160;DHT22;11748;50.844;4.396;2023-02-01T09:19:39;7.10;99.90
23160;DHT22;11748;50.844;4.396;2023-02-01T09:22:05;7.10;99.90
23160;DHT22;11748;50.844;4.396;2023-02-01T09:24:33;7.10;99.90
23160;DHT22;11748;50.844;4.396;2023-02-01T09:26:58;7.20;99.90
23160;DHT22;11748;50.844;4.396;2023-02-01T09:29:24;7.10;99.90
23160;DHT22;11748;50.844;4.396;2023-02-01T09:31:50;7.20;99.90
23160;DHT22;11748;50.844;4.396;2023-02-01T09:34:18;7.20;99.90
23160;DHT22;11748;50.844;4.396;2023-02-01T09:36:44;7.30;99.90
23160;DHT22;11748;50.844;4.396;2023-02-01T09:39:11;7.20;99.90
23160;DHT22;11748;50.844;4.396;2023-02-01T09:45:10;7.30;99.90
23160;DHT22;11748;50.844;4.396;2023-02-01T09:47:47;7.30;99.90
23160;DHT22;11748;50.844;4.396;2023-02-01T09:50:22;7.50;99.90
23160;DHT22;11748;50.844;4.396;2023-02-01T09:58:00;7.50;99.90
23160;DHT22;11748;50.844;4.396;2023-02-01T10:00:36;7.50;99.90
23160;DHT22;11748;50.844;4.396;2023-02-01T10:03:03;7.60;99.90
23160;DHT22;11748;50.844;4.396;2023-02-01T10:06:08;7.70;99.90
23160;DHT22;11748;50.844;4.396;2023-02-01T10:17:23;8.10;99.90
23160;DHT22;11748;50.844;4.396;2023-02-01T10:22:44;8.10;99.90
23160;DHT22;11748;50.844;4.396;2023-02-01T10:25:27;8.20;99.90
23160;DHT22;11748;50.844;4.396;2023-02-01T10:27:54;8.20;99.90
23160;DHT22;11748;50.844;4.396;2023-02-01T10:30:29;8.30;99.90
23160;DHT22;11748;50.844;4.396;2023-02-01T10:32:57;8.40;99.90
23160;DHT22;11748;50.844;4.396;2023-02-01T10:35:31;8.40;99.90
23160;DHT22;11748;50.844;4.396;2023-02-01T10:38:07;8.50;99.90
23160;DHT22;11748;50.844;4.396;2023-02-01T10:40:37;8.50;99.90
23160;DHT22;11748;50.844;4.396;2023-02-01T10:43:03;8.50;99.90
23160;DHT22;11748;50.844;4.396;2023-02-01T10:45:32;8.70;99.90
23160;DHT22;11748;50.844;4.396;2023-02-01T10:48:00;8.70;99.90
23160;DHT22;11748;50.844;4.396;2023-02-01T10:50:48;8.60;99.90
23160;DHT22;11748;50.844;4.396;2023-02-01T10:53:30;8.70;99.90
23160;DHT22;11748;50.844;4.396;2023-02-01T10:56:06;8.80;99.90
23160;DHT22;11748;50.844;4.396;2023-02-01T10:58:32;9.00;99.90
23160;DHT22;11748;50.844;4.396;2023-02-01T11:01:07;9.10;99.90
23160;DHT22;11748;50.844;4.396;2023-02-01T11:06:17;9.30;99.90
23160;DHT22;11748;50.844;4.396;2023-02-01T11:08:50;9.30;99.90
23160;DHT22;11748;50.844;4.396;2023-02-01T11:11:16;9.30;99.90
23160;DHT22;11748;50.844;4.396;2023-02-01T11:13:42;9.30;99.90
23160;DHT22;11748;50.844;4.396;2023-02-01T11:16:13;9.40;99.90
23160;DHT22;11748;50.844;4.396;2023-02-01T11:18:40;9.40;99.90
23160;DHT22;11748;50.844;4.396;2023-02-01T11:21:07;9.40;99.90
23160;DHT22;11748;50.844;4.396;2023-02-01T11:23:33;9.50;99.90
23160;DHT22;11748;50.844;4.396;2023-02-01T11:26:24;9.70;99.90
23160;DHT22;11748;50.844;4.396;2023-02-01T11:29:12;9.60;99.90
23160;DHT22;11748;50.844;4.396;2023-02-01T11:31:39;9.60;99.90
23160;DHT22;11748;50.844;4.396;2023-02-01T11:34:08;9.70;99.90
23160;DHT22;11748;50.844;4.396;2023-02-01T11:36:37;9.70;99.90
23160;DHT22;11748;50.844;4.396;2023-02-01T11:42:15;9.70;99.90
23160;DHT22;11748;50.844;4.396;2023-02-01T11:44:42;9.50;99.90
23160;DHT22;11748;50.844;4.396;2023-02-01T11:47:30;9.40;99.90
23160;DHT22;11748;50.844;4.396;2023-02-01T11:50:14;9.50;99.90
23160;DHT22;11748;50.844;4.396;2023-02-01T12:14:36;10.50;99.90
23160;DHT22;11748;50.844;4.396;2023-02-01T12:28:54;10.40;99.90
23160;DHT22;11748;50.844;4.396;2023-02-01T12:39:40;10.60;99.90
23160;DHT22;11748;50.844;4.396;2023-02-01T12:42:29;10.80;99.90
23160;DHT22;11748;50.844;4.396;2023-02-01T12:45:18;10.70;99.90
23160;DHT22;11748;50.844;4.396;2023-02-01T12:47:52;10.90;99.90
23160;DHT22;11748;50.844;4.396;2023-02-01T12:50:26;10.90;99.90
23160;DHT22;11748;50.844;4.396;2023-02-01T12:52:58;11.00;99.90
23160;DHT22;11748;50.844;4.396;2023-02-01T12:55:36;11.20;99.90
23160;DHT22;11748;50.844;4.396;2023-02-01T12:58:15;11.40;99.90
23160;DHT22;11748;50.844;4.396;2023-02-01T13:00:49;11.50;99.90
23160;DHT22;11748;50.844;4.396;2023-02-01T13:08:40;11.50;99.90
23160;DHT22;11748;50.844;4.396;2023-02-01T13:11:27;11.50;99.90
23160;DHT22;11748;50.844;4.396;2023-02-01T13:14:51;11.50;99.90
23160;DHT22;11748;50.844;4.396;2023-02-01T13:19:59;11.80;99.90
23160;DHT22;11748;50.844;4.396;2023-02-01T13:22:40;11.80;99.90
23160;DHT22;11748;50.844;4.396;2023-02-01T13:25:20;11.70;99.90
23160;DHT22;11748;50.844;4.396;2023-02-01T13:27:53;11.50;99.90
23160;DHT22;11748;50.844;4.396;2023-02-01T13:31:14;11.40;99.90
23160;DHT22;11748;50.844;4.396;2023-02-01T13:43:43;11.50;99.90
23160;DHT22;11748;50.844;4.396;2023-02-01T13:46:11;11.60;99.90
23160;DHT22;11748;50.844;4.396;2023-02-01T13:49:01;11.80;99.90
23160;DHT22;11748;50.844;4.396;2023-02-01T13:51:49;11.60;99.90
23160;DHT22;11748;50.844;4.396;2023-02-01T13:54:29;11.30;99.90
23160;DHT22;11748;50.844;4.396;2023-02-01T13:56:58;11.40;99.90
23160;DHT22;11748;50.844;4.396;2023-02-01T14:02:45;11.60;99.90
23160;DHT22;11748;50.844;4.396;2023-02-01T14:10:48;11.30;99.90
23160;DHT22;11748;50.844;4.396;2023-02-01T14:21:26;11.00;99.90
23160;DHT22;11748;50.844;4.396;2023-02-01T14:34:52;11.10;99.90
23160;DHT22;11748;50.844;4.396;2023-02-01T14:42:48;11.00;99.90
23160;DHT22;11748;50.844;4.396;2023-02-01T14:50:27;10.80;99.90
23160;DHT22;11748;50.844;4.396;2023-02-01T14:55:45;10.60;99.90
23160;DHT22;11748;50.844;4.396;2023-02-01T15:04:06;10.60;99.90
23160;DHT22;11748;50.844;4.396;2023-02-01T15:06:50;10.60;99.90
23160;DHT22;11748;50.844;4.396;2023-02-01T15:09:45;10.60;99.90
23160;DHT22;11748;50.844;4.396;2023-02-01T15:14:39;10.50;99.90
23160;DHT22;11748;50.844;4.396;2023-02-01T15:17:35;10.50;99.90
23160;DHT22;11748;50.844;4.396;2023-02-01T15:20:15;10.60;99.90
23160;DHT22;11748;50.844;4.396;2023-02-01T15:22:42;10.60;99.90
23160;DHT22;11748;50.844;4.396;2023-02-01T15:25:23;10.50;99.90
23160;DHT22;11748;50.844;4.396;2023-02-01T15:27:51;10.60;99.90
23160;DHT22;11748;50.844;4.396;2023-02-01T15:30:32;10.40;99.90
23160;DHT22;11748;50.844;4.396;2023-02-01T15:33:16;10.30;99.90
23160;DHT22;11748;50.844;4.396;2023-02-01T15:35:44;10.20;99.90
23160;DHT22;11748;50.844;4.396;2023-02-01T15:43:24;10.10;99.90
23160;DHT22;11748;50.844;4.396;2023-02-01T15:45:53;10.10;99.90
23160;DHT22;11748;50.844;4.396;2023-02-01T15:48:24;10.30;99.90
23160;DHT22;11748;50.844;4.396;2023-02-01T15:50:52;10.40;99.90
23160;DHT22;11748;50.844;4.396;2023-02-01T15:53:24;10.30;99.90
23160;DHT22;11748;50.844;4.396;2023-02-01T15:55:55;10.30;99.90
23160;DHT22;11748;50.844;4.396;2023-02-01T15:58:23;10.40;99.90
23160;DHT22;11748;50.844;4.396;2023-02-01T16:00:59;10.40;99.90
23160;DHT22;11748;50.844;4.396;2023-02-01T16:03:39;10.40;99.90
23160;DHT22;11748;50.844;4.396;2023-02-01T16:06:33;10.40;99.90
23160;DHT22;11748;50.844;4.396;2023-02-01T16:09:14;10.40;99.90
23160;DHT22;11748;50.844;4.396;2023-02-01T16:12:01;10.40;99.90
23160;DHT22;11748;50.844;4.396;2023-02-01T16:14:27;10.40;99.90
23160;DHT22;11748;50.844;4.396;2023-02-01T16:16:57;10.20;99.90
23160;DHT22;11748;50.844;4.396;2023-02-01T16:19:23;10.10;99.90
23160;DHT22;11748;50.844;4.396;2023-02-01T16:21:54;10.10;99.90
23160;DHT22;11748;50.844;4.396;2023-02-01T16:24:21;10.30;99.90
23160;DHT22;11748;50.844;4.396;2023-02-01T16:26:50;10.30;99.90
23160;DHT22;11748;50.844;4.396;2023-02-01T16:29:15;10.20;99.90
23160;DHT22;11748;50.844;4.396;2023-02-01T16:31:42;10.10;99.90
23160;DHT22;11748;50.844;4.396;2023-02-01T16:34:15;10.20;99.90
23160;DHT22;11748;50.844;4.396;2023-02-01T16:36:47;10.20;99.90
23160;DHT22;11748;50.844;4.396;2023-02-01T16:39:17;10.30;99.90
23160;DHT22;11748;50.844;4.396;2023-02-01T16:41:43;10.30;99.90
23160;DHT22;11748;50.844;4.396;2023-02-01T16:44:08;10.30;99.90
23160;DHT22;11748;50.844;4.396;2023-02-01T16:46:39;10.20;99.90
23160;DHT22;11748;50.844;4.396;2023-02-01T16:49:05;10.20;99.90
23160;DHT22;11748;50.844;4.396;2023-02-01T16:51:42;10.20;99.90
23160;DHT22;11748;50.844;4.396;2023-02-01T16:54:08;10.30;99.90
23160;DHT22;11748;50.844;4.396;2023-02-01T16:56:34;10.50;99.90
23160;DHT22;11748;50.844;4.396;2023-02-01T16:59:01;10.40;99.90
23160;DHT22;11748;50.844;4.396;2023-02-01T17:01:27;10.30;99.90
23160;DHT22;11748;50.844;4.396;2023-02-01T17:03:53;10.30;99.90
23160;DHT22;11748;50.844;4.396;2023-02-01T17:06:22;10.40;99.90
23160;DHT22;11748;50.844;4.396;2023-02-01T17:08:53;10.40;99.90
23160;DHT22;11748;50.844;4.396;2023-02-01T17:11:19;10.50;99.90
23160;DHT22;11748;50.844;4.396;2023-02-01T17:13:45;10.40;99.90
23160;DHT22;11748;50.844;4.396;2023-02-01T17:16:29;10.40;99.90
23160;DHT22;11748;50.844;4.396;2023-02-01T17:19:03;10.50;99.90
23160;DHT22;11748;50.844;4.396;2023-02-01T17:21:40;10.40;99.90
23160;DHT22;11748;50.844;4.396;2023-02-01T17:24:09;10.30;99.90
23160;DHT22;11748;50.844;4.396;2023-02-01T17:26:34;10.30;99.90
23160;DHT22;11748;50.844;4.396;2023-02-01T17:29:00;10.30;99.90
23160;DHT22;11748;50.844;4.396;2023-02-01T17:31:27;10.10;99.90
23160;DHT22;11748;50.844;4.396;2023-02-01T17:33:54;10.00;99.90
23160;DHT22;11748;50.844;4.396;2023-02-01T17:36:20;10.10;99.90
23160;DHT22;11748;50.844;4.396;2023-02-01T17:38:45;10.10;99.90
23160;DHT22;11748;50.844;4.396;2023-02-01T17:41:12;10.10;99.90
23160;DHT22;11748;50.844;4.396;2023-02-01T17:43:39;10.10;99.90
23160;DHT22;11748;50.844;4.396;2023-02-01T17:46:10;10.10;99.90
23160;DHT22;11748;50.844;4.396;2023-02-01T17:48:37;10.20;99.90
23160;DHT22;11748;50.844;4.396;2023-02-01T17:51:11;10.20;99.90
23160;DHT22;11748;50.844;4.396;2023-02-01T17:53:39;10.00;99.90
23160;DHT22;11748;50.844;4.396;2023-02-01T17:56:11;9.90;99.90
23160;DHT22;11748;50.844;4.396;2023-02-01T17:58:37;10.00;99.90
23160;DHT22;11748;50.844;4.396;2023-02-01T18:01:03;9.80;99.90
23160;DHT22;11748;50.844;4.396;2023-02-01T18:03:30;9.90;99.90
23160;DHT22;11748;50.844;4.396;2023-02-01T18:05:58;9.90;99.90
23160;DHT22;11748;50.844;4.396;2023-02-01T18:08:27;10.00;99.90
23160;DHT22;11748;50.844;4.396;2023-02-01T18:10:56;10.00;99.90
23160;DHT22;11748;50.844;4.396;2023-02-01T18:13:28;10.00;99.90
23160;DHT22;11748;50.844;4.396;2023-02-01T18:15:55;10.10;99.90
23160;DHT22;11748;50.844;4.396;2023-02-01T18:18:23;10.10;99.90
23160;DHT22;11748;50.844;4.396;2023-02-01T18:20:49;10.20;99.90
23160;DHT22;11748;50.844;4.396;2023-02-01T18:23:20;10.20;99.90
23160;DHT22;11748;50.844;4.396;2023-02-01T18:25:48;10.10;99.90
23160;DHT22;11748;50.844;4.396;2023-02-01T18:28:14;10.10;99.90
23160;DHT22;11748;50.844;4.396;2023-02-01T18:30:42;9.90;99.90
23160;DHT22;11748;50.844;4.396;2023-02-01T18:33:10;10.00;99.90
23160;DHT22;11748;50.844;4.396;2023-02-01T18:35:36;10.10;99.90
23160;DHT22;11748;50.844;4.396;2023-02-01T18:38:02;10.10;99.90
23160;DHT22;11748;50.844;4.396;2023-02-01T18:40:42;10.10;99.90
23160;DHT22;11748;50.844;4.396;2023-02-01T18:43:14;10.00;99.90
23160;DHT22;11748;50.844;4.396;2023-02-01T18:45:41;10.00;99.90
23160;DHT22;11748;50.844;4.396;2023-02-01T18:48:10;9.90;99.90
23160;DHT22;11748;50.844;4.396;2023-02-01T18:50:39;9.90;99.90
23160;DHT22;11748;50.844;4.396;2023-02-01T18:53:09;9.80;99.90
23160;DHT22;11748;50.844;4.396;2023-02-01T18:55:35;9.80;99.90
23160;DHT22;11748;50.844;4.396;2023-02-01T18:58:03;9.90;99.90
23160;DHT22;11748;50.844;4.396;2023-02-01T19:00:31;9.80;99.90
23160;DHT22;11748;50.844;4.396;2023-02-01T19:02:58;9.90;99.90
23160;DHT22;11748;50.844;4.396;2023-02-01T19:05:24;9.90;99.90